Time;durP1;ratioP1;P1;durP2;ratioP2;P2;SDS_P1;SDS_P2;PMS_P1;PMS_P2;Temp;Humidity;BMP_temperature;BMP_pressure;BME280_temperature;BME280_humidity;BME280_pressure;Samples;Min_cycle;Max_cycle;Signal;HPM_P1;HPM_P2
2022/04/22 00:02:21;;;;;;;15.98;7.55;;;5.90;99.90;;;;;;5005213;28;20038;-65
2022/04/22 00:04:47;;;;;;;18.05;8.32;;;5.90;99.90;;;;;;5002487;28;20058;-64
2022/04/22 00:07:13;;;;;;;15.93;7.60;;;6.00;99.90;;;;;;5006135;28;20030;-65
2022/04/22 00:09:38;;;;;;;20.20;8.15;;;6.00;99.90;;;;;;4986191;28;20029;-64
2022/04/22 00:12:05;;;;;;;18.05;8.38;;;5.90;99.90;;;;;;5004879;28;20033;-64
2022/04/22 00:14:31;;;;;;;17.90;8.27;;;5.90;99.90;;;;;;4989971;28;20046;-64
2022/04/22 00:16:57;;;;;;;18.10;8.38;;;5.90;99.90;;;;;;5001962;28;20037;-64
2022/04/22 00:19:23;;;;;;;17.20;8.25;;;5.90;99.90;;;;;;5006009;28;20038;-64
2022/04/22 00:21:48;;;;;;;19.75;8.80;;;5.80;99.90;;;;;;5004353;28;20029;-64
2022/04/22 00:24:16;;;;;;;16.60;7.68;;;5.80;99.90;;;;;;5007482;28;20382;-64
2022/04/22 00:26:42;;;;;;;19.83;8.45;;;5.80;99.90;;;;;;5007643;28;20121;-64
2022/04/22 00:29:07;;;;;;;16.65;8.13;;;5.80;99.90;;;;;;5003988;28;20492;-65
2022/04/22 00:31:33;;;;;;;16.63;8.13;;;5.90;99.90;;;;;;4996632;28;20111;-65
2022/04/22 00:33:59;;;;;;;19.67;8.55;;;5.80;99.90;;;;;;5005176;28;20029;-65
2022/04/22 00:36:25;;;;;;;19.23;8.73;;;5.70;99.90;;;;;;5007971;28;20382;-65
2022/04/22 00:38:51;;;;;;;21.45;8.98;;;5.70;99.90;;;;;;5001869;28;20049;-64
2022/04/22 00:41:18;;;;;;;19.50;9.00;;;5.60;99.90;;;;;;4976559;28;20050;-64
2022/04/22 00:43:49;;;;;;;20.85;9.27;;;5.60;99.90;;;;;;5001132;28;20171;-64
2022/04/22 00:46:14;;;;;;;;;;;5.60;99.90;;;;;;5004974;28;20034;-64
2022/04/22 00:48:41;;;;;;;19.75;9.00;;;5.70;99.90;;;;;;4986659;28;19916;-64
2022/04/22 00:51:08;;;;;;;21.17;9.38;;;5.70;99.90;;;;;;5007283;28;20038;-64
2022/04/22 00:53:35;;;;;;;21.85;10.18;;;5.70;99.90;;;;;;4994004;28;20030;-64
2022/04/22 00:56:06;;;;;;;20.25;10.05;;;5.70;99.90;;;;;;4989038;28;20664;-65
2022/04/22 00:58:35;;;;;;;21.77;9.98;;;5.70;99.90;;;;;;4989647;28;20034;-65
2022/04/22 01:01:02;;;;;;;23.35;10.13;;;5.80;99.90;;;;;;4985929;28;20037;-65
2022/04/22 01:03:29;;;;;;;19.45;10.00;;;5.90;99.90;;;;;;5009526;28;20032;-64
2022/04/22 01:11:27;;;;;;;24.58;10.77;;;5.90;99.90;;;;;;4997905;28;20104;-64
2022/04/22 01:13:54;;;;;;;22.95;10.82;;;5.90;99.90;;;;;;4991975;28;20038;-65
2022/04/22 01:16:19;;;;;;;20.15;10.07;;;5.90;99.90;;;;;;5000966;28;20041;-65
2022/04/22 01:18:45;;;;;;;27.88;11.73;;;5.90;99.90;;;;;;4991146;28;20038;-64
2022/04/22 01:21:11;;;;;;;22.85;10.98;;;5.90;99.90;;;;;;5012322;28;20037;-64
2022/04/22 01:23:37;;;;;;;24.35;10.95;;;5.90;99.90;;;;;;5004365;28;20368;-65
2022/04/22 01:26:03;;;;;;;24.52;11.30;;;5.90;99.90;;;;;;5011308;28;20025;-65
2022/04/22 01:28:28;;;;;;;29.30;12.25;;;5.90;99.90;;;;;;4989097;28;20045;-64
2022/04/22 01:30:58;;;;;;;26.10;12.70;;;5.90;99.90;;;;;;5010945;28;20025;-64
2022/04/22 01:33:24;;;;;;;33.28;13.27;;;5.90;99.90;;;;;;5007477;28;20895;-64
2022/04/22 01:35:50;;;;;;;25.15;11.77;;;5.80;99.90;;;;;;5007287;28;20462;-64
2022/04/22 01:38:16;;;;;;;28.23;12.73;;;5.80;99.90;;;;;;4997611;28;20076;-65
2022/04/22 01:40:41;;;;;;;29.35;12.98;;;5.70;99.90;;;;;;4998699;28;20042;-65
2022/04/22 01:43:08;;;;;;;27.67;13.07;;;5.70;99.90;;;;;;5019469;28;20116;-65
2022/04/22 01:45:34;;;;;;;28.92;11.80;;;5.70;99.90;;;;;;5014972;28;20034;-64
2022/04/22 01:48:00;;;;;;;32.10;13.43;;;5.60;99.90;;;;;;5004024;28;20034;-64
2022/04/22 01:50:25;;;;;;;29.42;12.73;;;5.70;99.90;;;;;;5006296;28;20040;-64
2022/04/22 01:52:51;;;;;;;30.23;13.85;;;5.70;99.90;;;;;;5017980;28;20037;-64
2022/04/22 01:55:17;;;;;;;31.08;13.30;;;5.70;99.90;;;;;;5008481;28;20037;-65
2022/04/22 01:57:42;;;;;;;32.80;13.35;;;5.70;99.90;;;;;;5009258;28;20088;-64
2022/04/22 02:00:09;;;;;;;31.20;12.90;;;5.70;99.90;;;;;;5008605;28;20038;-65
2022/04/22 02:02:35;;;;;;;32.65;14.13;;;5.70;99.90;;;;;;5006084;28;21702;-65
2022/04/22 02:05:02;;;;;;;28.42;13.23;;;5.70;99.90;;;;;;5014859;28;20405;-65
2022/04/22 02:07:27;;;;;;;30.85;14.27;;;5.60;99.90;;;;;;5010187;28;20151;-64
2022/04/22 02:09:53;;;;;;;30.38;13.15;;;5.60;99.90;;;;;;5009344;28;20562;-64
2022/04/22 02:12:19;;;;;;;31.05;14.05;;;5.50;99.90;;;;;;5008203;28;20259;-65
2022/04/22 02:14:44;;;;;;;30.90;13.60;;;5.50;99.90;;;;;;5018637;28;20057;-64
2022/04/22 02:17:10;;;;;;;29.73;13.70;;;5.40;99.90;;;;;;5007554;28;20025;-64
2022/04/22 02:19:36;;;;;;;35.30;15.38;;;5.40;99.90;;;;;;4977442;28;20033;-64
2022/04/22 02:22:01;;;;;;;35.78;15.02;;;5.40;99.90;;;;;;5020695;28;20041;-64
2022/04/22 02:24:27;;;;;;;34.00;14.57;;;5.50;99.90;;;;;;5009531;28;20022;-64
2022/04/22 02:29:37;;;;;;;35.28;15.02;;;5.40;99.90;;;;;;5008971;28;20041;-64
2022/04/22 02:32:03;;;;;;;37.08;16.65;;;5.40;99.90;;;;;;5011182;28;20034;-64
2022/04/22 02:34:29;;;;;;;37.58;15.95;;;5.30;99.90;;;;;;5008937;28;20029;-64
2022/04/22 02:36:55;;;;;;;41.33;16.90;;;5.30;99.90;;;;;;5008688;28;20033;-64
2022/04/22 02:39:21;;;;;;;40.33;16.30;;;5.40;99.90;;;;;;5008510;28;20546;-64
2022/04/22 02:47:15;;;;;;;37.80;16.40;;;5.40;99.90;;;;;;4997428;28;20545;-64
2022/04/22 02:49:44;;;;;;;39.33;16.25;;;5.40;99.90;;;;;;4990728;28;20042;-65
2022/04/22 02:52:14;;;;;;;37.92;16.90;;;5.40;99.90;;;;;;4987753;28;20026;-64
2022/04/22 02:54:40;;;;;;;41.58;18.27;;;5.40;99.90;;;;;;5008659;28;20037;-65
2022/04/22 02:57:07;;;;;;;24.77;11.60;;;5.50;99.90;;;;;;4996548;28;20045;-64
2022/04/22 02:59:34;;;;;;;26.85;12.18;;;5.20;99.90;;;;;;4996541;28;20052;-64
2022/04/22 03:01:59;;;;;;;36.15;14.60;;;4.60;99.90;;;;;;5007397;28;20525;-65
2022/04/22 03:04:26;;;;;;;36.33;14.93;;;4.40;99.90;;;;;;5008423;28;20026;-64
2022/04/22 03:06:52;;;;;;;34.35;14.32;;;4.40;99.90;;;;;;4999010;28;20109;-65
2022/04/22 03:09:18;;;;;;;38.10;16.02;;;4.40;99.90;;;;;;4988948;28;20114;-65
2022/04/22 03:11:43;;;;;;;39.25;16.95;;;4.40;99.90;;;;;;4996801;28;20030;-65
2022/04/22 03:14:09;;;;;;;40.80;17.35;;;4.50;99.90;;;;;;4988875;28;20082;-65
2022/04/22 03:16:35;;;;;;;38.25;16.05;;;4.60;99.90;;;;;;4998789;28;20026;-65
2022/04/22 03:19:01;;;;;;;39.70;16.20;;;4.60;99.90;;;;;;4996943;28;20436;-65
2022/04/22 03:21:26;;;;;;;37.65;16.25;;;4.50;99.90;;;;;;5011465;28;20104;-64
2022/04/22 03:23:52;;;;;;;41.97;17.08;;;4.60;99.90;;;;;;4995311;28;20395;-64
2022/04/22 03:26:19;;;;;;;45.13;17.67;;;4.60;99.90;;;;;;4994820;28;20030;-64
2022/04/22 03:28:46;;;;;;;49.92;19.13;;;4.70;99.90;;;;;;4996859;28;20038;-64
2022/04/22 03:31:13;;;;;;;40.60;16.88;;;4.70;99.90;;;;;;5011717;28;20030;-64
2022/04/22 03:33:38;;;;;;;43.17;18.00;;;4.60;99.90;;;;;;4985051;28;20724;-65
2022/04/22 03:36:04;;;;;;;44.00;18.40;;;4.60;99.90;;;;;;4993499;28;20037;-65
2022/04/22 03:38:30;;;;;;;41.85;17.33;;;4.50;99.90;;;;;;4984507;28;20679;-65
2022/04/22 03:40:56;;;;;;;41.53;18.35;;;4.50;99.90;;;;;;4995595;28;20038;-65
2022/04/22 03:43:24;;;;;;;44.60;19.15;;;4.50;99.90;;;;;;4996363;28;20475;-65
2022/04/22 03:45:50;;;;;;;40.20;16.98;;;4.60;99.90;;;;;;4989752;28;20483;-65
2022/04/22 03:48:15;;;;;;;44.00;18.15;;;4.60;99.90;;;;;;4997390;28;20029;-65
2022/04/22 03:50:42;;;;;;;40.97;17.85;;;4.60;99.90;;;;;;4988270;28;20033;-65
2022/04/22 03:53:12;;;;;;;46.10;18.75;;;4.60;99.90;;;;;;4994596;28;20026;-65
2022/04/22 03:55:39;;;;;;;42.85;18.80;;;4.50;99.90;;;;;;5003542;28;20049;-65
2022/04/22 03:58:11;;;;;;;46.78;18.88;;;4.60;99.90;;;;;;5005548;28;20728;-65
2022/04/22 04:00:40;;;;;;;48.58;19.40;;;4.60;99.90;;;;;;5000402;28;20105;-65
2022/04/22 04:03:10;;;;;;;49.25;19.80;;;4.60;99.90;;;;;;4987376;28;20041;-66
2022/04/22 04:05:40;;;;;;;46.00;19.98;;;4.60;99.90;;;;;;4998753;28;20031;-65
2022/04/22 04:08:09;;;;;;;48.35;19.33;;;4.60;99.90;;;;;;5007204;28;20125;-64
2022/04/22 04:16:04;;;;;;;46.67;19.60;;;4.60;99.90;;;;;;5009613;28;20188;-66
2022/04/22 04:18:32;;;;;;;50.42;20.92;;;4.50;99.90;;;;;;5003033;28;20160;-68
2022/04/22 04:23:44;;;;;;;49.30;19.80;;;4.60;99.90;;;;;;5000735;28;20041;-68
2022/04/22 04:26:11;;;;;;;43.83;18.13;;;4.60;99.90;;;;;;5008679;28;20026;-68
2022/04/22 04:28:38;;;;;;;43.90;18.60;;;4.20;99.90;;;;;;5024955;28;20029;-66
2022/04/22 04:31:06;;;;;;;45.72;18.92;;;4.10;99.90;;;;;;5020719;28;20029;-66
2022/04/22 04:33:32;;;;;;;48.67;19.85;;;4.00;99.90;;;;;;5011980;28;20509;-67
2022/04/22 04:35:59;;;;;;;47.97;19.10;;;4.00;99.90;;;;;;5010751;28;20021;-67
2022/04/22 04:38:27;;;;;;;52.33;21.25;;;4.10;99.90;;;;;;4992257;28;20042;-67
2022/04/22 04:40:53;;;;;;;47.72;19.55;;;4.10;99.90;;;;;;5011496;28;20030;-68
2022/04/22 04:43:19;;;;;;;52.13;20.52;;;4.10;99.90;;;;;;4983306;28;20092;-67
2022/04/22 04:45:45;;;;;;;48.33;19.15;;;4.10;99.90;;;;;;4998722;28;20029;-65
2022/04/22 04:48:11;;;;;;;50.25;20.33;;;4.10;99.90;;;;;;5010377;28;20382;-65
2022/04/22 04:50:40;;;;;;;49.35;19.88;;;4.20;99.90;;;;;;5005426;28;20026;-66
2022/04/22 04:53:06;;;;;;;46.88;19.40;;;4.20;99.90;;;;;;5000771;28;20118;-66
2022/04/22 04:55:32;;;;;;;47.00;20.02;;;4.20;99.90;;;;;;5002193;28;20884;-67
2022/04/22 04:57:58;;;;;;;47.88;19.70;;;4.30;99.90;;;;;;4992993;28;20446;-64
2022/04/22 05:00:23;;;;;;;49.30;19.95;;;4.30;99.90;;;;;;4981088;28;20033;-66
2022/04/22 05:02:49;;;;;;;54.28;21.63;;;4.40;99.90;;;;;;4982504;28;20036;-67
2022/04/22 05:05:15;;;;;;;52.45;21.48;;;4.50;99.90;;;;;;4990533;28;20124;-67
2022/04/22 05:07:51;;;;;;;49.80;20.20;;;4.60;99.90;;;;;;5010947;28;20072;-69
2022/04/22 05:10:18;;;;;;;50.80;20.48;;;4.70;99.90;;;;;;5008539;28;20033;-68
2022/04/22 05:12:44;;;;;;;54.55;20.58;;;4.60;99.90;;;;;;5010866;28;20493;-66
2022/04/22 05:15:11;;;;;;;47.15;19.02;;;4.60;99.90;;;;;;4993456;28;20065;-67
2022/04/22 05:17:39;;;;;;;46.60;19.08;;;4.60;99.90;;;;;;5009076;28;20069;-69
2022/04/22 05:20:05;;;;;;;47.65;19.13;;;4.70;99.90;;;;;;5014750;28;20036;-69
2022/04/22 05:22:31;;;;;;;44.42;19.83;;;4.70;99.90;;;;;;5009986;28;20573;-69
2022/04/22 05:24:56;;;;;;;48.78;20.48;;;4.80;99.90;;;;;;4992997;28;20056;-69
2022/04/22 05:27:22;;;;;;;43.78;18.90;;;4.90;99.90;;;;;;5008603;28;20062;-68
2022/04/22 05:32:38;;;;;;;45.75;19.27;;;5.00;99.90;;;;;;4991375;28;20122;-66
2022/04/22 05:35:08;;;;;;;44.38;18.98;;;5.10;99.90;;;;;;4998887;28;20104;-67
2022/04/22 05:37:48;;;;;;;47.83;20.65;;;5.20;99.90;;;;;;5009836;28;20030;-68
2022/04/22 05:40:16;;;;;;;45.55;19.20;;;5.20;99.90;;;;;;5019170;28;20026;-69
2022/04/22 05:42:43;;;;;;;48.35;20.98;;;5.20;99.90;;;;;;5014221;28;20061;-68
2022/04/22 05:45:10;;;;;;;47.90;19.92;;;5.30;99.90;;;;;;5007870;28;20040;-69
2022/04/22 05:47:37;;;;;;;53.13;21.45;;;5.40;99.90;;;;;;5006998;28;20017;-67
2022/04/22 05:50:04;;;;;;;53.28;22.08;;;5.60;99.90;;;;;;5008665;28;20076;-69
2022/04/22 05:52:34;;;;;;;55.88;21.70;;;5.80;99.90;;;;;;5010426;28;20034;-69
2022/04/22 05:55:04;;;;;;;50.70;21.02;;;6.00;99.90;;;;;;5010797;28;20042;-69
2022/04/22 05:57:33;;;;;;;48.10;20.25;;;6.20;99.90;;;;;;5009860;28;20257;-69
2022/04/22 06:00:00;;;;;;;47.67;20.92;;;6.30;99.90;;;;;;5007195;28;20034;-70
2022/04/22 06:02:26;;;;;;;50.13;21.02;;;6.50;99.90;;;;;;4995709;28;20100;-70
2022/04/22 06:04:53;;;;;;;56.10;21.83;;;6.60;99.90;;;;;;5006164;28;20044;-71
2022/04/22 06:07:19;;;;;;;48.97;20.95;;;6.70;99.90;;;;;;5008269;28;20076;-66
2022/04/22 06:12:29;;;;;;;46.95;20.02;;;6.80;99.90;;;;;;5006358;28;20037;-68
2022/04/22 06:14:59;;;;;;;49.83;21.27;;;7.00;99.90;;;;;;4991289;28;20049;-67
2022/04/22 06:17:27;;;;;;;49.92;21.52;;;7.20;99.90;;;;;;5006762;28;20134;-66
2022/04/22 06:19:53;;;;;;;51.78;21.55;;;7.30;99.90;;;;;;5007121;28;20022;-66
2022/04/22 06:22:18;;;;;;;48.53;21.40;;;7.40;99.90;;;;;;5010322;28;20126;-68
2022/04/22 06:24:44;;;;;;;47.58;20.85;;;7.40;99.90;;;;;;5007238;28;20034;-67
2022/04/22 06:27:09;;;;;;;45.20;20.10;;;7.50;99.90;;;;;;4973349;28;20096;-66
2022/04/22 06:29:36;;;;;;;44.58;20.10;;;7.50;99.90;;;;;;5006508;28;20068;-66
2022/04/22 06:32:02;;;;;;;45.95;19.92;;;7.50;99.90;;;;;;4996797;28;20395;-66
2022/04/22 06:34:28;;;;;;;47.83;21.17;;;7.50;99.90;;;;;;5014163;28;20095;-66
2022/04/22 06:36:54;;;;;;;47.28;20.45;;;7.60;99.90;;;;;;5026353;28;20030;-66
2022/04/22 06:39:20;;;;;;;48.72;21.02;;;7.80;99.90;;;;;;4996502;28;21309;-66
2022/04/22 06:47:15;;;;;;;43.38;20.25;;;8.20;99.90;;;;;;5006968;28;20037;-65
2022/04/22 06:49:41;;;;;;;43.70;20.55;;;8.20;99.90;;;;;;5012286;28;20036;-67
2022/04/22 06:52:09;;;;;;;42.97;19.95;;;8.30;99.90;;;;;;4993485;28;20034;-68
2022/04/22 06:54:36;;;;;;;41.25;18.80;;;8.20;99.90;;;;;;4993325;28;20454;-66
2022/04/22 06:57:02;;;;;;;40.47;18.65;;;8.40;99.90;;;;;;4989184;28;20517;-73
2022/04/22 06:59:29;;;;;;;44.75;20.42;;;8.50;99.90;;;;;;4992702;28;20060;-63
2022/04/22 07:01:56;;;;;;;42.75;19.63;;;8.70;99.90;;;;;;5003766;28;20033;-66
2022/04/22 07:04:24;;;;;;;42.15;19.48;;;8.90;99.90;;;;;;5004463;28;20026;-66
2022/04/22 07:06:51;;;;;;;39.90;18.98;;;9.00;99.90;;;;;;5009900;28;20080;-64
2022/04/22 07:09:17;;;;;;;44.58;18.83;;;9.20;99.90;;;;;;5009985;28;20463;-63
2022/04/22 07:11:44;;;;;;;40.05;19.23;;;9.20;99.90;;;;;;5007578;28;20026;-63
2022/04/22 07:14:11;;;;;;;38.38;18.08;;;9.30;99.90;;;;;;5009259;28;20065;-62
2022/04/22 07:16:43;;;;;;;37.45;17.88;;;9.40;99.90;;;;;;5008964;28;20113;-62
2022/04/22 07:19:09;;;;;;;39.33;18.75;;;9.40;99.90;;;;;;5007818;28;20534;-63
2022/04/22 07:21:35;;;;;;;38.55;18.23;;;9.50;99.90;;;;;;4990469;28;20101;-66
2022/04/22 07:24:01;;;;;;;39.30;18.75;;;9.60;99.90;;;;;;5008371;28;20037;-64
2022/04/22 07:26:27;;;;;;;38.92;18.42;;;9.70;99.90;;;;;;5000667;28;20396;-65
2022/04/22 07:28:56;;;;;;;42.72;19.02;;;9.80;99.90;;;;;;4990367;28;20034;-65
2022/04/22 07:31:22;;;;;;;40.28;18.80;;;9.90;99.90;;;;;;5006980;28;20033;-65
2022/04/22 07:33:51;;;;;;;39.10;18.40;;;10.10;99.90;;;;;;5008483;28;20045;-65
2022/04/22 07:36:17;;;;;;;41.30;19.50;;;10.20;99.90;;;;;;5003010;28;20033;-64
2022/04/22 07:38:44;;;;;;;43.88;18.95;;;10.40;99.90;;;;;;5004868;28;20044;-64
2022/04/22 07:41:11;;;;;;;40.22;18.83;;;10.60;99.90;;;;;;5007131;28;20041;-64
2022/04/22 07:49:07;;;;;;;36.10;17.98;;;11.20;99.90;;;;;;5008695;28;20041;-64
2022/04/22 07:51:34;;;;;;;36.13;17.02;;;11.20;99.90;;;;;;5013772;28;20082;-64
2022/04/22 07:54:00;;;;;;;36.85;17.50;;;11.00;99.90;;;;;;5009025;28;20500;-64
2022/04/22 07:56:27;;;;;;;34.60;16.92;;;11.00;99.90;;;;;;5003650;28;20392;-72
2022/04/22 07:58:53;;;;;;;36.78;17.92;;;11.00;99.90;;;;;;4989948;28;20038;-65
2022/04/22 08:01:19;;;;;;;36.53;17.50;;;11.30;99.90;;;;;;5002912;28;20026;-65
2022/04/22 08:03:44;;;;;;;34.67;17.35;;;11.40;99.90;;;;;;4976223;28;20102;-65
2022/04/22 08:06:11;;;;;;;37.55;17.85;;;11.50;99.90;;;;;;5008738;28;20486;-66
2022/04/22 08:08:37;;;;;;;35.25;17.42;;;11.60;99.90;;;;;;5008196;28;20037;-65
2022/04/22 08:11:02;;;;;;;32.88;15.88;;;11.70;99.90;;;;;;5010792;28;20029;-69
2022/04/22 08:13:29;;;;;;;32.20;16.58;;;12.00;99.90;;;;;;4984637;28;20049;-66
2022/04/22 08:15:55;;;;;;;33.78;16.50;;;12.20;99.90;;;;;;5012543;28;20042;-65
2022/04/22 08:18:20;;;;;;;33.92;16.52;;;12.30;99.90;;;;;;5013453;28;20593;-69
2022/04/22 08:20:46;;;;;;;32.75;16.35;;;12.40;99.90;;;;;;5011572;28;20070;-65
2022/04/22 08:23:12;;;;;;;35.13;17.38;;;12.50;99.90;;;;;;5010062;28;20471;-67
2022/04/22 08:25:38;;;;;;;31.80;16.35;;;12.70;99.90;;;;;;5005450;28;20022;-66
2022/04/22 08:28:04;;;;;;;31.55;16.35;;;12.80;99.90;;;;;;4999090;28;20046;-67
2022/04/22 08:30:30;;;;;;;32.75;16.27;;;13.10;99.90;;;;;;4997131;28;20038;-67
2022/04/22 08:32:57;;;;;;;29.90;16.00;;;13.30;99.90;;;;;;5006608;28;20045;-67
2022/04/22 08:35:22;;;;;;;31.40;16.17;;;13.40;99.90;;;;;;5009944;28;20033;-70
2022/04/22 08:37:48;;;;;;;29.33;15.73;;;13.10;99.90;;;;;;5002441;28;22040;-71
2022/04/22 08:40:14;;;;;;;27.70;15.13;;;13.10;99.90;;;;;;4996895;28;20038;-69
2022/04/22 08:42:42;;;;;;;31.40;15.85;;;13.00;99.90;;;;;;5001305;28;20055;-67
2022/04/22 08:45:09;;;;;;;32.22;16.35;;;13.10;99.90;;;;;;5005728;28;20049;-70
2022/04/22 08:50:31;;;;;;;32.13;15.48;;;13.10;99.90;;;;;;5003283;28;20079;-69
2022/04/22 08:53:03;;;;;;;31.52;16.20;;;13.50;99.90;;;;;;4997278;28;20038;-63
2022/04/22 08:55:30;;;;;;;32.22;17.10;;;13.70;99.90;;;;;;5002573;28;20116;-67
2022/04/22 08:57:55;;;;;;;27.35;15.48;;;13.60;99.90;;;;;;5017853;28;20470;-68
2022/04/22 09:00:22;;;;;;;33.03;15.82;;;13.50;99.90;;;;;;5016702;28;20108;-66
2022/04/22 09:02:54;;;;;;;30.05;15.63;;;13.90;99.90;;;;;;5000323;28;20031;-67
2022/04/22 09:05:19;;;;;;;31.58;16.30;;;14.10;99.90;;;;;;5008575;28;20036;-65
2022/04/22 09:07:46;;;;;;;28.13;15.27;;;14.10;99.90;;;;;;5010287;28;20029;-66
2022/04/22 09:10:12;;;;;;;29.52;15.80;;;13.90;99.90;;;;;;4993436;28;20747;-66
2022/04/22 09:12:42;;;;;;;34.25;16.50;;;14.00;99.90;;;;;;5010446;28;20033;-67
2022/04/22 09:15:10;;;;;;;33.10;15.80;;;13.90;99.90;;;;;;4998345;28;20050;-66
2022/04/22 09:17:36;;;;;;;27.73;15.55;;;14.40;99.90;;;;;;4994794;28;20030;-66
2022/04/22 09:20:04;;;;;;;29.10;15.27;;;14.30;99.90;;;;;;5018875;28;20382;-66
2022/04/22 09:22:35;;;;;;;28.10;14.68;;;14.40;99.90;;;;;;5025236;28;20033;-66
2022/04/22 09:25:01;;;;;;;;;;;14.20;99.90;;;;;;5031250;28;20037;-65
2022/04/22 09:27:36;;;;;;;29.45;14.98;;;14.30;99.90;;;;;;5023620;28;19909;-67
2022/04/22 09:30:07;;;;;;;24.60;14.40;;;14.50;99.90;;;;;;5003339;28;20420;-66
2022/04/22 09:32:35;;;;;;;28.23;14.88;;;14.40;99.90;;;;;;5008613;28;20025;-67
2022/04/22 09:35:16;;;;;;;25.85;14.85;;;14.50;99.90;;;;;;5011117;28;20042;-67
2022/04/22 09:43:23;;;;;;;25.65;14.48;;;15.20;99.90;;;;;;5000644;28;20029;-68
2022/04/22 09:45:52;;;;;;;32.75;14.20;;;15.50;99.90;;;;;;4992610;28;20646;-67
2022/04/22 09:48:20;;;;;;;26.55;14.63;;;15.60;99.90;;;;;;4996488;28;20065;-67
2022/04/22 09:50:53;;;;;;;26.05;14.25;;;15.60;99.90;;;;;;4990957;28;20030;-66
2022/04/22 09:53:39;;;;;;;28.63;14.38;;;15.70;99.90;;;;;;5007227;28;20034;-65
2022/04/22 09:56:08;;;;;;;25.65;14.25;;;15.60;99.90;;;;;;5022049;28;20041;-66
2022/04/22 09:58:34;;;;;;;23.23;12.88;;;15.70;99.90;;;;;;4991767;28;20042;-67
2022/04/22 10:01:04;;;;;;;26.30;14.93;;;15.60;99.90;;;;;;4991799;28;20160;-66
2022/04/22 10:03:37;;;;;;;25.88;14.38;;;15.40;99.60;;;;;;4992917;28;20030;-67
2022/04/22 10:06:05;;;;;;;23.90;13.45;;;15.20;99.40;;;;;;5006448;28;20379;-66
2022/04/22 10:08:36;;;;;;;25.58;14.70;;;15.30;99.90;;;;;;4978689;28;20123;-65
2022/04/22 10:11:05;;;;;;;23.95;13.95;;;15.60;99.90;;;;;;5006708;28;20030;-65
2022/04/22 10:13:34;;;;;;;22.75;12.63;;;15.80;99.10;;;;;;5008177;28;20482;-66
2022/04/22 10:16:01;;;;;;;22.52;12.73;;;16.20;98.70;;;;;;5008760;28;20171;-64
2022/04/22 10:18:27;;;;;;;23.40;13.85;;;16.40;97.30;;;;;;5012264;28;20033;-65
2022/04/22 10:20:54;;;;;;;23.88;13.23;;;16.70;96.20;;;;;;5031374;28;20044;-63
2022/04/22 10:23:21;;;;;;;24.45;13.88;;;16.50;95.90;;;;;;5007412;28;20026;-64
2022/04/22 10:25:48;;;;;;;27.08;12.65;;;16.40;95.30;;;;;;4983525;28;20030;-64
2022/04/22 10:28:15;;;;;;;23.42;13.88;;;16.40;95.40;;;;;;5008789;28;20046;-64
2022/04/22 10:30:43;;;;;;;20.35;11.77;;;16.40;94.50;;;;;;5005425;28;20022;-64
2022/04/22 10:33:12;;;;;;;20.92;12.38;;;16.50;94.40;;;;;;4979962;28;20038;-63
2022/04/22 10:35:45;;;;;;;18.25;11.43;;;16.60;94.30;;;;;;5002001;28;20034;-64
2022/04/22 10:38:38;;;;;;;21.65;12.32;;;16.80;93.60;;;;;;5015671;28;20042;-64
2022/04/22 10:41:17;;;;;;;22.92;12.60;;;17.10;93.20;;;;;;5004679;28;20061;-64
2022/04/22 10:47:13;;;;;;;20.23;12.35;;;17.30;91.10;;;;;;5007377;28;20026;-64
2022/04/22 10:49:15;;;;;;;22.45;13.05;;;17.30;90.90;;;;;;5003566;28;20084;-64
2022/04/22 10:52:09;;;;;;;20.13;12.32;;;17.40;90.90;;;;;;5011288;28;20056;-64
2022/04/22 10:54:58;;;;;;;22.23;13.27;;;17.40;91.30;;;;;;4991934;28;20061;-64
2022/04/22 10:57:35;;;;;;;18.70;11.65;;;17.10;88.80;;;;;;4989903;28;20471;-64
2022/04/22 11:00:10;;;;;;;24.20;12.45;;;17.40;89.80;;;;;;5009833;28;20077;-64
2022/04/22 11:02:39;;;;;;;20.02;12.15;;;17.80;87.50;;;;;;4994064;28;20030;-65
2022/04/22 11:05:20;;;;;;;30.92;14.90;;;17.90;88.50;;;;;;5004604;28;20034;-65
2022/04/22 11:07:57;;;;;;;21.90;12.45;;;17.80;85.70;;;;;;4990458;28;20398;-64
2022/04/22 11:10:25;;;;;;;23.90;13.50;;;17.80;86.80;;;;;;4997892;28;20095;-64
2022/04/22 11:12:58;;;;;;;22.15;13.45;;;17.90;81.00;;;;;;5019527;28;20025;-65
2022/04/22 11:15:42;;;;;;;23.60;12.50;;;17.90;83.30;;;;;;5021877;28;20516;-64
2022/04/22 11:18:09;;;;;;;22.23;12.43;;;17.70;86.10;;;;;;5007910;28;20046;-64
2022/04/22 11:20:36;;;;;;;22.55;12.93;;;17.60;84.40;;;;;;5003547;28;20474;-65
2022/04/22 11:23:03;;;;;;;27.35;14.02;;;17.60;83.40;;;;;;5009083;28;20044;-64
2022/04/22 11:25:29;;;;;;;21.52;14.00;;;17.70;83.00;;;;;;5007342;28;20395;-64
2022/04/22 11:27:56;;;;;;;20.40;12.00;;;17.90;83.80;;;;;;4990260;28;20030;-64
2022/04/22 11:30:22;;;;;;;21.45;12.98;;;18.10;85.20;;;;;;5007713;28;20414;-64
2022/04/22 11:32:52;;;;;;;24.13;13.95;;;18.30;84.00;;;;;;5014421;28;20057;-64
2022/04/22 11:35:21;;;;;;;24.00;13.88;;;18.00;81.50;;;;;;5006727;28;20064;-64
2022/04/22 11:38:03;;;;;;;20.10;12.30;;;18.20;81.90;;;;;;5005550;28;20030;-64
2022/04/22 11:40:35;;;;;;;21.17;12.88;;;18.40;80.10;;;;;;5001078;28;20049;-64
2022/04/22 11:43:08;;;;;;;20.60;12.73;;;18.50;78.40;;;;;;4996261;28;20041;-64
2022/04/22 11:45:42;;;;;;;20.83;12.50;;;18.20;78.20;;;;;;5002836;28;20049;-64
2022/04/22 11:48:19;;;;;;;25.10;13.45;;;18.10;81.00;;;;;;5018718;28;20033;-63
2022/04/22 11:50:46;;;;;;;25.73;14.18;;;18.10;78.70;;;;;;5012183;28;20037;-63
2022/04/22 11:53:20;;;;;;;25.15;13.65;;;18.40;78.10;;;;;;4996858;28;20053;-64
2022/04/22 11:55:47;;;;;;;20.90;13.20;;;18.60;75.10;;;;;;4998292;28;20525;-64
2022/04/22 11:58:20;;;;;;;20.85;12.93;;;18.60;74.90;;;;;;4994695;28;20026;-65
2022/04/22 12:06:16;;;;;;;24.50;14.35;;;19.10;72.60;;;;;;5004627;28;20800;-64
2022/04/22 12:09:03;;;;;;;21.25;13.32;;;18.90;71.90;;;;;;5018640;28;20041;-65
2022/04/22 12:11:30;;;;;;;35.90;16.67;;;18.80;72.30;;;;;;4989718;28;20038;-64
2022/04/22 12:13:56;;;;;;;23.50;13.98;;;19.10;71.40;;;;;;5001690;28;20049;-64
2022/04/22 12:16:27;;;;;;;24.77;14.27;;;19.10;74.80;;;;;;5007871;28;20044;-64
2022/04/22 12:18:56;;;;;;;;;;;19.20;72.40;;;;;;5024013;28;20087;-68
2022/04/22 12:21:22;;;;;;;26.42;14.02;;;19.50;72.20;;;;;;4996977;28;20720;-68
2022/04/22 12:23:50;;;;;;;23.77;13.93;;;19.10;68.10;;;;;;5003653;28;20033;-67
2022/04/22 12:26:27;;;;;;;24.63;13.88;;;18.50;71.10;;;;;;5001319;28;20034;-65
2022/04/22 12:29:15;;;;;;;21.67;13.93;;;18.60;72.50;;;;;;5008263;28;20117;-65
2022/04/22 12:31:46;;;;;;;26.45;13.73;;;18.60;70.40;;;;;;5005805;28;20034;-65
2022/04/22 12:34:14;;;;;;;27.98;15.32;;;18.60;74.30;;;;;;5007590;28;20072;-65
2022/04/22 12:36:52;;;;;;;22.65;13.50;;;18.80;72.30;;;;;;5007874;28;20030;-65
2022/04/22 12:39:33;;;;;;;21.45;13.43;;;18.90;71.40;;;;;;4987646;28;20472;-65
2022/04/22 12:41:58;;;;;;;22.10;12.98;;;18.90;71.90;;;;;;5004786;28;20025;-65
2022/04/22 12:44:25;;;;;;;21.40;12.52;;;18.90;71.50;;;;;;4989970;28;20400;-65
2022/04/22 12:52:30;;;;;;;24.00;13.43;;;19.00;73.40;;;;;;4937121;28;20048;-66
2022/04/22 12:55:04;;;;;;;23.27;13.52;;;19.50;72.10;;;;;;5004726;28;21757;-65
2022/04/22 12:57:30;;;;;;;21.33;12.25;;;19.20;69.90;;;;;;5002572;28;20026;-65
2022/04/22 12:59:57;;;;;;;28.15;13.68;;;19.40;73.20;;;;;;5007238;28;20481;-65
2022/04/22 13:02:33;;;;;;;25.45;13.55;;;19.20;68.30;;;;;;5000443;28;20130;-65
2022/04/22 13:04:59;;;;;;;24.25;12.15;;;19.00;71.10;;;;;;5011958;28;20157;-65
2022/04/22 13:07:40;;;;;;;21.85;12.27;;;19.40;71.70;;;;;;5019113;28;20045;-66
2022/04/22 13:10:07;;;;;;;22.15;11.80;;;19.90;68.30;;;;;;5007318;28;20141;-65
2022/04/22 13:12:38;;;;;;;20.80;11.80;;;19.50;66.50;;;;;;5009453;28;20097;-66
2022/04/22 13:15:08;;;;;;;23.27;12.80;;;19.70;69.00;;;;;;5008511;28;20042;-66
2022/04/22 13:17:38;;;;;;;25.17;12.07;;;19.50;67.70;;;;;;5000366;28;20041;-65
2022/04/22 13:20:05;;;;;;;23.35;11.45;;;19.70;68.30;;;;;;4984226;28;20042;-65
2022/04/22 13:22:30;;;;;;;18.13;11.50;;;19.70;68.00;;;;;;5001064;28;20041;-66
2022/04/22 13:24:56;;;;;;;18.90;12.45;;;20.10;67.70;;;;;;5002401;28;20665;-66
2022/04/22 13:27:21;;;;;;;16.95;10.70;;;20.20;64.30;;;;;;4998380;28;20475;-66
2022/04/22 13:29:47;;;;;;;20.08;11.85;;;20.40;66.40;;;;;;5000051;28;20034;-66
2022/04/22 13:32:13;;;;;;;18.65;11.98;;;20.70;65.00;;;;;;4997061;28;20030;-66
2022/04/22 13:34:39;;;;;;;22.85;12.25;;;20.40;61.80;;;;;;5009149;28;20106;-66
2022/04/22 13:37:05;;;;;;;16.33;11.07;;;20.00;62.20;;;;;;5008441;28;20088;-66
2022/04/22 13:39:31;;;;;;;15.20;10.10;;;19.70;64.40;;;;;;5002239;28;20057;-66